sensor_id;sensor_type;location;lat;lon;timestamp;temperature;humidity
36214;DHT22;37652;50.400;30.628;2022-07-23T00:01:15;20.30;99.90
36214;DHT22;37652;50.400;30.628;2022-07-23T00:03:18;20.30;99.90
36214;DHT22;37652;50.400;30.628;2022-07-23T00:05:19;20.70;99.90
36214;DHT22;37652;50.400;30.628;2022-07-23T00:07:23;20.50;99.90
36214;DHT22;37652;50.400;30.628;2022-07-23T00:11:25;20.30;99.90
36214;DHT22;37652;50.400;30.628;2022-07-23T00:13:27;20.60;99.90
36214;DHT22;37652;50.400;30.628;2022-07-23T00:15:27;20.30;99.90
36214;DHT22;37652;50.400;30.628;2022-07-23T00:17:28;20.80;99.90
36214;DHT22;37652;50.400;30.628;2022-07-23T00:19:29;20.40;99.90
36214;DHT22;37652;50.400;30.628;2022-07-23T00:21:29;20.60;99.90
36214;DHT22;37652;50.400;30.628;2022-07-23T00:25:31;20.40;99.90
36214;DHT22;37652;50.400;30.628;2022-07-23T00:27:32;20.10;99.90
36214;DHT22;37652;50.400;30.628;2022-07-23T00:31:34;20.30;99.90
36214;DHT22;37652;50.400;30.628;2022-07-23T00:33:35;20.30;99.90
36214;DHT22;37652;50.400;30.628;2022-07-23T00:35:38;20.20;99.90
36214;DHT22;37652;50.400;30.628;2022-07-23T00:37:41;20.10;99.90
36214;DHT22;37652;50.400;30.628;2022-07-23T00:39:41;20.40;99.90
36214;DHT22;37652;50.400;30.628;2022-07-23T00:41:42;20.00;99.90
36214;DHT22;37652;50.400;30.628;2022-07-23T00:43:43;20.00;99.90
36214;DHT22;37652;50.400;30.628;2022-07-23T00:45:43;19.90;99.90
36214;DHT22;37652;50.400;30.628;2022-07-23T00:47:44;19.90;99.90
36214;DHT22;37652;50.400;30.628;2022-07-23T00:51:46;20.40;99.90
36214;DHT22;37652;50.400;30.628;2022-07-23T00:53:48;20.10;99.90
36214;DHT22;37652;50.400;30.628;2022-07-23T00:55:48;19.90;99.90
36214;DHT22;37652;50.400;30.628;2022-07-23T00:57:50;20.30;99.90
36214;DHT22;37652;50.400;30.628;2022-07-23T00:59:51;20.10;99.90
36214;DHT22;37652;50.400;30.628;2022-07-23T01:01:52;20.30;99.90
36214;DHT22;37652;50.400;30.628;2022-07-23T01:05:53;20.40;99.90
36214;DHT22;37652;50.400;30.628;2022-07-23T01:07:54;20.00;99.90
36214;DHT22;37652;50.400;30.628;2022-07-23T01:09:55;20.20;99.90
36214;DHT22;37652;50.400;30.628;2022-07-23T01:11:56;19.90;99.90
36214;DHT22;37652;50.400;30.628;2022-07-23T01:13:57;20.70;99.90
36214;DHT22;37652;50.400;30.628;2022-07-23T01:15:58;19.90;99.90
36214;DHT22;37652;50.400;30.628;2022-07-23T01:17:59;20.30;99.90
36214;DHT22;37652;50.400;30.628;2022-07-23T01:19:59;19.80;99.90
36214;DHT22;37652;50.400;30.628;2022-07-23T01:22:03;19.80;99.90
36214;DHT22;37652;50.400;30.628;2022-07-23T01:24:04;19.90;99.90
36214;DHT22;37652;50.400;30.628;2022-07-23T01:26:05;19.80;99.90
36214;DHT22;37652;50.400;30.628;2022-07-23T01:28:06;20.50;99.90
36214;DHT22;37652;50.400;30.628;2022-07-23T01:30:07;19.70;99.90
36214;DHT22;37652;50.400;30.628;2022-07-23T01:32:08;20.10;99.90
36214;DHT22;37652;50.400;30.628;2022-07-23T01:34:09;19.40;99.90
36214;DHT22;37652;50.400;30.628;2022-07-23T01:38:11;20.00;99.90
36214;DHT22;37652;50.400;30.628;2022-07-23T01:40:12;19.50;99.90
36214;DHT22;37652;50.400;30.628;2022-07-23T01:42:13;19.40;99.90
36214;DHT22;37652;50.400;30.628;2022-07-23T01:44:13;19.60;99.90
36214;DHT22;37652;50.400;30.628;2022-07-23T01:46:14;19.70;99.90
36214;DHT22;37652;50.400;30.628;2022-07-23T01:48:15;19.70;99.90
36214;DHT22;37652;50.400;30.628;2022-07-23T01:50:17;19.70;99.90
36214;DHT22;37652;50.400;30.628;2022-07-23T01:52:17;20.50;99.90
36214;DHT22;37652;50.400;30.628;2022-07-23T01:54:18;19.30;99.90
36214;DHT22;37652;50.400;30.628;2022-07-23T01:56:19;19.50;99.90
36214;DHT22;37652;50.400;30.628;2022-07-23T02:00:22;19.70;99.90
36214;DHT22;37652;50.400;30.628;2022-07-23T02:04:24;19.70;99.90
36214;DHT22;37652;50.400;30.628;2022-07-23T02:06:25;20.30;99.90
36214;DHT22;37652;50.400;30.628;2022-07-23T02:08:25;19.90;99.90
36214;DHT22;37652;50.400;30.628;2022-07-23T02:10:26;19.90;99.90
36214;DHT22;37652;50.400;30.628;2022-07-23T02:14:28;19.50;99.90
36214;DHT22;37652;50.400;30.628;2022-07-23T02:16:28;20.00;99.90
36214;DHT22;37652;50.400;30.628;2022-07-23T02:18:29;20.00;99.90
36214;DHT22;37652;50.400;30.628;2022-07-23T02:20:30;19.60;99.90
36214;DHT22;37652;50.400;30.628;2022-07-23T02:22:31;19.60;99.90
36214;DHT22;37652;50.400;30.628;2022-07-23T02:26:32;19.60;99.90
36214;DHT22;37652;50.400;30.628;2022-07-23T02:28:35;19.40;99.90
36214;DHT22;37652;50.400;30.628;2022-07-23T02:32:38;19.60;99.90
36214;DHT22;37652;50.400;30.628;2022-07-23T02:34:40;19.80;99.90
36214;DHT22;37652;50.400;30.628;2022-07-23T02:36:40;19.60;99.90
36214;DHT22;37652;50.400;30.628;2022-07-23T02:38:41;19.50;99.90
36214;DHT22;37652;50.400;30.628;2022-07-23T02:40:42;19.80;99.90
36214;DHT22;37652;50.400;30.628;2022-07-23T02:42:42;19.70;99.90
36214;DHT22;37652;50.400;30.628;2022-07-23T02:44:43;19.40;99.90
36214;DHT22;37652;50.400;30.628;2022-07-23T02:48:45;19.70;99.90
36214;DHT22;37652;50.400;30.628;2022-07-23T02:50:45;19.50;99.90
36214;DHT22;37652;50.400;30.628;2022-07-23T02:52:46;19.70;99.90
36214;DHT22;37652;50.400;30.628;2022-07-23T02:54:47;19.60;99.90
36214;DHT22;37652;50.400;30.628;2022-07-23T02:58:51;19.80;99.90
36214;DHT22;37652;50.400;30.628;2022-07-23T03:02:52;19.90;99.90
36214;DHT22;37652;50.400;30.628;2022-07-23T03:06:54;19.80;99.90
36214;DHT22;37652;50.400;30.628;2022-07-23T03:08:55;20.10;99.90
36214;DHT22;37652;50.400;30.628;2022-07-23T03:10:55;20.60;99.90
36214;DHT22;37652;50.400;30.628;2022-07-23T03:12:56;19.80;99.90
36214;DHT22;37652;50.400;30.628;2022-07-23T03:14:56;20.00;99.90
36214;DHT22;37652;50.400;30.628;2022-07-23T03:21:01;20.40;99.90
36214;DHT22;37652;50.400;30.628;2022-07-23T03:23:01;19.90;99.90
36214;DHT22;37652;50.400;30.628;2022-07-23T03:25:02;20.00;99.90
36214;DHT22;37652;50.400;30.628;2022-07-23T03:27:03;20.20;99.90
36214;DHT22;37652;50.400;30.628;2022-07-23T03:31:05;20.20;99.90
36214;DHT22;37652;50.400;30.628;2022-07-23T03:33:05;21.00;99.90
36214;DHT22;37652;50.400;30.628;2022-07-23T03:35:07;20.50;99.90
36214;DHT22;37652;50.400;30.628;2022-07-23T03:37:07;20.40;99.90
36214;DHT22;37652;50.400;30.628;2022-07-23T03:39:08;20.30;99.90
36214;DHT22;37652;50.400;30.628;2022-07-23T03:41:08;21.30;99.90
36214;DHT22;37652;50.400;30.628;2022-07-23T03:43:09;20.70;99.90
36214;DHT22;37652;50.400;30.628;2022-07-23T03:45:10;20.30;99.90
36214;DHT22;37652;50.400;30.628;2022-07-23T03:51:13;20.60;99.90
36214;DHT22;37652;50.400;30.628;2022-07-23T03:53:13;21.30;99.90
36214;DHT22;37652;50.400;30.628;2022-07-23T03:55:14;21.00;99.90
36214;DHT22;37652;50.400;30.628;2022-07-23T03:57:15;20.80;99.90
36214;DHT22;37652;50.400;30.628;2022-07-23T03:59:16;20.80;99.90
36214;DHT22;37652;50.400;30.628;2022-07-23T04:01:16;20.90;99.90
36214;DHT22;37652;50.400;30.628;2022-07-23T04:03:17;21.10;99.90
36214;DHT22;37652;50.400;30.628;2022-07-23T04:05:18;20.70;99.90
36214;DHT22;37652;50.400;30.628;2022-07-23T04:07:18;21.00;99.90
36214;DHT22;37652;50.400;30.628;2022-07-23T04:11:20;22.00;99.90
36214;DHT22;37652;50.400;30.628;2022-07-23T04:13:21;21.10;99.90
36214;DHT22;37652;50.400;30.628;2022-07-23T04:15:22;21.50;99.90
36214;DHT22;37652;50.400;30.628;2022-07-23T04:17:22;21.30;99.90
36214;DHT22;37652;50.400;30.628;2022-07-23T04:19:23;21.00;99.90
36214;DHT22;37652;50.400;30.628;2022-07-23T04:21:24;21.40;99.90
36214;DHT22;37652;50.400;30.628;2022-07-23T04:23:25;21.30;99.90
36214;DHT22;37652;50.400;30.628;2022-07-23T04:27:27;21.40;99.90
36214;DHT22;37652;50.400;30.628;2022-07-23T04:29:27;21.50;99.90
36214;DHT22;37652;50.400;30.628;2022-07-23T04:33:29;21.20;99.90
36214;DHT22;37652;50.400;30.628;2022-07-23T04:35:29;21.60;99.90
36214;DHT22;37652;50.400;30.628;2022-07-23T04:37:30;21.50;99.90
36214;DHT22;37652;50.400;30.628;2022-07-23T04:39:30;21.70;99.90
36214;DHT22;37652;50.400;30.628;2022-07-23T04:41:32;21.90;99.90
36214;DHT22;37652;50.400;30.628;2022-07-23T04:43:32;21.70;99.90
36214;DHT22;37652;50.400;30.628;2022-07-23T04:45:33;21.40;99.90
36214;DHT22;37652;50.400;30.628;2022-07-23T04:49:35;21.90;99.90
36214;DHT22;37652;50.400;30.628;2022-07-23T04:51:35;21.80;99.90
36214;DHT22;37652;50.400;30.628;2022-07-23T04:53:37;21.90;99.90
36214;DHT22;37652;50.400;30.628;2022-07-23T04:55:38;21.80;99.90
36214;DHT22;37652;50.400;30.628;2022-07-23T04:57:39;21.90;99.90
36214;DHT22;37652;50.400;30.628;2022-07-23T04:59:39;21.80;99.90
36214;DHT22;37652;50.400;30.628;2022-07-23T05:01:40;21.90;99.90
36214;DHT22;37652;50.400;30.628;2022-07-23T05:03:42;21.90;99.90
36214;DHT22;37652;50.400;30.628;2022-07-23T05:05:43;21.90;99.90
36214;DHT22;37652;50.400;30.628;2022-07-23T05:07:43;21.90;99.90
36214;DHT22;37652;50.400;30.628;2022-07-23T05:09:44;22.00;99.90
36214;DHT22;37652;50.400;30.628;2022-07-23T05:11:44;21.90;99.90
36214;DHT22;37652;50.400;30.628;2022-07-23T05:13:45;22.10;99.90
36214;DHT22;37652;50.400;30.628;2022-07-23T05:19:47;22.60;99.90
36214;DHT22;37652;50.400;30.628;2022-07-23T05:21:48;22.60;99.90
36214;DHT22;37652;50.400;30.628;2022-07-23T05:23:49;22.70;99.90
36214;DHT22;37652;50.400;30.628;2022-07-23T05:27:50;22.90;99.90
36214;DHT22;37652;50.400;30.628;2022-07-23T05:29:51;22.70;99.90
36214;DHT22;37652;50.400;30.628;2022-07-23T05:31:51;23.00;99.90
36214;DHT22;37652;50.400;30.628;2022-07-23T05:35:53;23.00;99.90
36214;DHT22;37652;50.400;30.628;2022-07-23T05:41:56;23.30;99.90
36214;DHT22;37652;50.400;30.628;2022-07-23T05:45:57;23.40;99.90
36214;DHT22;37652;50.400;30.628;2022-07-23T05:47:58;23.60;99.90
36214;DHT22;37652;50.400;30.628;2022-07-23T05:49:58;23.60;99.90
36214;DHT22;37652;50.400;30.628;2022-07-23T05:52:04;23.70;99.90
36214;DHT22;37652;50.400;30.628;2022-07-23T05:54:04;24.30;99.90
36214;DHT22;37652;50.400;30.628;2022-07-23T05:56:05;23.60;99.90
36214;DHT22;37652;50.400;30.628;2022-07-23T06:00:07;23.70;99.90
36214;DHT22;37652;50.400;30.628;2022-07-23T06:02:08;23.30;99.90
36214;DHT22;37652;50.400;30.628;2022-07-23T06:04:09;23.70;99.90
36214;DHT22;37652;50.400;30.628;2022-07-23T06:06:09;23.70;99.90
36214;DHT22;37652;50.400;30.628;2022-07-23T06:08:10;23.60;99.90
36214;DHT22;37652;50.400;30.628;2022-07-23T06:10:10;23.90;99.90
36214;DHT22;37652;50.400;30.628;2022-07-23T06:12:11;24.40;99.90
36214;DHT22;37652;50.400;30.628;2022-07-23T06:14:12;23.90;99.90
36214;DHT22;37652;50.400;30.628;2022-07-23T06:16:12;24.10;99.90
36214;DHT22;37652;50.400;30.628;2022-07-23T06:18:13;24.20;99.90
36214;DHT22;37652;50.400;30.628;2022-07-23T06:20:13;24.60;99.90
36214;DHT22;37652;50.400;30.628;2022-07-23T06:22:14;24.50;99.90
36214;DHT22;37652;50.400;30.628;2022-07-23T06:24:15;24.60;99.90
36214;DHT22;37652;50.400;30.628;2022-07-23T06:26:15;24.50;99.90
36214;DHT22;37652;50.400;30.628;2022-07-23T06:30:17;24.70;99.90
36214;DHT22;37652;50.400;30.628;2022-07-23T06:32:19;25.00;99.90
36214;DHT22;37652;50.400;30.628;2022-07-23T06:34:19;25.10;99.90
36214;DHT22;37652;50.400;30.628;2022-07-23T06:36:20;25.10;99.90
36214;DHT22;37652;50.400;30.628;2022-07-23T06:38:21;25.40;99.90
36214;DHT22;37652;50.400;30.628;2022-07-23T06:40:21;25.30;99.90
36214;DHT22;37652;50.400;30.628;2022-07-23T06:48:25;25.40;99.90
36214;DHT22;37652;50.400;30.628;2022-07-23T06:52:27;25.70;99.90
36214;DHT22;37652;50.400;30.628;2022-07-23T06:54:27;25.80;99.90
36214;DHT22;37652;50.400;30.628;2022-07-23T07:00:30;25.70;99.90
36214;DHT22;37652;50.400;30.628;2022-07-23T07:06:33;25.80;99.90
36214;DHT22;37652;50.400;30.628;2022-07-23T07:20:40;25.90;99.90
36214;DHT22;37652;50.400;30.628;2022-07-23T07:24:42;25.80;99.90
36214;DHT22;37652;50.400;30.628;2022-07-23T07:26:42;26.20;99.90
36214;DHT22;37652;50.400;30.628;2022-07-23T07:30:44;26.50;99.90
36214;DHT22;37652;50.400;30.628;2022-07-23T07:32:45;25.80;99.90
36214;DHT22;37652;50.400;30.628;2022-07-23T07:36:47;26.40;99.70
36214;DHT22;37652;50.400;30.628;2022-07-23T07:38:47;26.30;99.00
36214;DHT22;37652;50.400;30.628;2022-07-23T07:40:48;26.20;98.50
36214;DHT22;37652;50.400;30.628;2022-07-23T07:42:51;26.20;97.70
36214;DHT22;37652;50.400;30.628;2022-07-23T07:44:52;26.30;98.80
36214;DHT22;37652;50.400;30.628;2022-07-23T07:50:55;26.40;97.80
36214;DHT22;37652;50.400;30.628;2022-07-23T07:52:56;26.60;97.30
36214;DHT22;37652;50.400;30.628;2022-07-23T07:54:56;26.80;97.70
36214;DHT22;37652;50.400;30.628;2022-07-23T07:56:57;26.90;96.90
36214;DHT22;37652;50.400;30.628;2022-07-23T08:07:03;27.10;97.30
36214;DHT22;37652;50.400;30.628;2022-07-23T08:09:04;26.60;97.50
36214;DHT22;37652;50.400;30.628;2022-07-23T08:11:05;26.90;97.50
36214;DHT22;37652;50.400;30.628;2022-07-23T08:15:07;26.60;96.80
36214;DHT22;37652;50.400;30.628;2022-07-23T08:19:09;27.10;95.60
36214;DHT22;37652;50.400;30.628;2022-07-23T08:25:13;27.00;97.50
36214;DHT22;37652;50.400;30.628;2022-07-23T08:29:15;27.80;95.90
36214;DHT22;37652;50.400;30.628;2022-07-23T08:33:18;27.40;94.70
36214;DHT22;37652;50.400;30.628;2022-07-23T08:35:26;27.50;94.60
36214;DHT22;37652;50.400;30.628;2022-07-23T08:37:26;27.80;95.10
36214;DHT22;37652;50.400;30.628;2022-07-23T08:39:27;27.80;95.80
36214;DHT22;37652;50.400;30.628;2022-07-23T08:41:28;27.60;95.30
36214;DHT22;37652;50.400;30.628;2022-07-23T08:43:30;28.20;96.10
36214;DHT22;37652;50.400;30.628;2022-07-23T08:45:39;27.50;94.90
36214;DHT22;37652;50.400;30.628;2022-07-23T08:51:42;28.60;93.70
36214;DHT22;37652;50.400;30.628;2022-07-23T08:53:44;28.20;93.20
36214;DHT22;37652;50.400;30.628;2022-07-23T08:55:50;28.40;93.40
36214;DHT22;37652;50.400;30.628;2022-07-23T08:57:52;28.80;94.40
36214;DHT22;37652;50.400;30.628;2022-07-23T08:59:53;28.60;93.50
36214;DHT22;37652;50.400;30.628;2022-07-23T09:01:54;29.10;93.30
36214;DHT22;37652;50.400;30.628;2022-07-23T09:05:59;29.00;92.70
36214;DHT22;37652;50.400;30.628;2022-07-23T09:08:13;29.00;92.00
36214;DHT22;37652;50.400;30.628;2022-07-23T09:10:13;30.30;92.20
36214;DHT22;37652;50.400;30.628;2022-07-23T09:12:14;32.80;88.60
36214;DHT22;37652;50.400;30.628;2022-07-23T09:14:15;34.50;84.10
36214;DHT22;37652;50.400;30.628;2022-07-23T09:16:18;34.40;80.50
36214;DHT22;37652;50.400;30.628;2022-07-23T09:22:25;35.70;73.40
36214;DHT22;37652;50.400;30.628;2022-07-23T09:24:26;35.80;72.80
36214;DHT22;37652;50.400;30.628;2022-07-23T09:26:31;35.90;71.20
36214;DHT22;37652;50.400;30.628;2022-07-23T09:32:34;34.60;69.50
36214;DHT22;37652;50.400;30.628;2022-07-23T09:34:36;34.70;68.30
36214;DHT22;37652;50.400;30.628;2022-07-23T09:36:40;34.90;68.20
36214;DHT22;37652;50.400;30.628;2022-07-23T09:38:49;35.50;67.60
36214;DHT22;37652;50.400;30.628;2022-07-23T09:41:09;37.60;66.60
36214;DHT22;37652;50.400;30.628;2022-07-23T09:43:10;37.40;66.60
36214;DHT22;37652;50.400;30.628;2022-07-23T09:45:11;36.70;64.00
36214;DHT22;37652;50.400;30.628;2022-07-23T09:47:12;36.10;63.60
36214;DHT22;37652;50.400;30.628;2022-07-23T09:49:18;35.10;64.30
36214;DHT22;37652;50.400;30.628;2022-07-23T09:51:20;34.50;66.00
36214;DHT22;37652;50.400;30.628;2022-07-23T09:53:30;35.90;64.70
36214;DHT22;37652;50.400;30.628;2022-07-23T09:55:32;36.40;63.50
36214;DHT22;37652;50.400;30.628;2022-07-23T09:57:41;36.80;64.30
36214;DHT22;37652;50.400;30.628;2022-07-23T09:59:43;36.20;63.90
36214;DHT22;37652;50.400;30.628;2022-07-23T10:03:46;35.40;63.60
36214;DHT22;37652;50.400;30.628;2022-07-23T10:05:48;35.80;62.90
36214;DHT22;37652;50.400;30.628;2022-07-23T10:07:51;36.10;62.40
36214;DHT22;37652;50.400;30.628;2022-07-23T10:09:52;35.90;61.60
36214;DHT22;37652;50.400;30.628;2022-07-23T10:11:56;36.30;61.90
36214;DHT22;37652;50.400;30.628;2022-07-23T10:14:02;35.00;61.60
36214;DHT22;37652;50.400;30.628;2022-07-23T10:16:04;36.30;62.50
36214;DHT22;37652;50.400;30.628;2022-07-23T10:18:05;36.20;62.40
36214;DHT22;37652;50.400;30.628;2022-07-23T10:20:06;35.50;62.60
36214;DHT22;37652;50.400;30.628;2022-07-23T10:22:34;36.70;62.10
36214;DHT22;37652;50.400;30.628;2022-07-23T10:35:04;37.20;61.00
36214;DHT22;37652;50.400;30.628;2022-07-23T10:39:22;35.80;61.50
36214;DHT22;37652;50.400;30.628;2022-07-23T10:41:32;35.90;61.20
36214;DHT22;37652;50.400;30.628;2022-07-23T10:45:36;32.90;58.10
36214;DHT22;37652;50.400;30.628;2022-07-23T10:47:39;37.40;59.80
36214;DHT22;37652;50.400;30.628;2022-07-23T10:49:41;37.80;59.90
36214;DHT22;37652;50.400;30.628;2022-07-23T10:54:23;37.40;59.40
36214;DHT22;37652;50.400;30.628;2022-07-23T10:57:16;37.60;60.00
36214;DHT22;37652;50.400;30.628;2022-07-23T11:01:36;37.20;59.70
36214;DHT22;37652;50.400;30.628;2022-07-23T11:03:37;37.30;60.10
36214;DHT22;37652;50.400;30.628;2022-07-23T11:05:45;37.00;60.00
36214;DHT22;37652;50.400;30.628;2022-07-23T11:10:05;35.80;60.40
36214;DHT22;37652;50.400;30.628;2022-07-23T11:14:13;36.70;60.20
36214;DHT22;37652;50.400;30.628;2022-07-23T11:16:22;37.20;60.00
36214;DHT22;37652;50.400;30.628;2022-07-23T11:20:43;37.30;59.30
36214;DHT22;37652;50.400;30.628;2022-07-23T11:24:51;36.80;58.90
36214;DHT22;37652;50.400;30.628;2022-07-23T11:26:59;35.50;60.10
36214;DHT22;37652;50.400;30.628;2022-07-23T11:31:26;36.20;59.90
36214;DHT22;37652;50.400;30.628;2022-07-23T11:33:27;36.00;60.60
36214;DHT22;37652;50.400;30.628;2022-07-23T11:35:28;35.40;60.70
36214;DHT22;37652;50.400;30.628;2022-07-23T11:37:37;35.50;61.00
36214;DHT22;37652;50.400;30.628;2022-07-23T11:39:39;35.60;60.70
36214;DHT22;37652;50.400;30.628;2022-07-23T11:41:44;36.00;60.80
36214;DHT22;37652;50.400;30.628;2022-07-23T11:43:44;36.80;60.20
36214;DHT22;37652;50.400;30.628;2022-07-23T11:45:51;36.90;59.70
36214;DHT22;37652;50.400;30.628;2022-07-23T11:49:55;36.40;59.70
36214;DHT22;37652;50.400;30.628;2022-07-23T11:52:13;36.30;59.90
36214;DHT22;37652;50.400;30.628;2022-07-23T11:54:14;36.20;59.80
36214;DHT22;37652;50.400;30.628;2022-07-23T11:56:15;36.50;59.80
36214;DHT22;37652;50.400;30.628;2022-07-23T11:58:16;36.50;59.60
36214;DHT22;37652;50.400;30.628;2022-07-23T12:00:20;36.70;58.90
36214;DHT22;37652;50.400;30.628;2022-07-23T12:02:22;36.20;58.60
36214;DHT22;37652;50.400;30.628;2022-07-23T12:04:25;36.50;59.00
36214;DHT22;37652;50.400;30.628;2022-07-23T12:06:39;36.70;59.30
36214;DHT22;37652;50.400;30.628;2022-07-23T12:08:44;36.30;59.50
36214;DHT22;37652;50.400;30.628;2022-07-23T12:10:44;36.10;59.50
36214;DHT22;37652;50.400;30.628;2022-07-23T12:17:08;36.80;59.00
36214;DHT22;37652;50.400;30.628;2022-07-23T12:21:10;35.60;59.20
36214;DHT22;37652;50.400;30.628;2022-07-23T12:23:12;33.90;60.10
36214;DHT22;37652;50.400;30.628;2022-07-23T12:25:21;33.50;61.10
36214;DHT22;37652;50.400;30.628;2022-07-23T12:27:22;32.50;61.90
36214;DHT22;37652;50.400;30.628;2022-07-23T12:29:34;31.50;63.00
36214;DHT22;37652;50.400;30.628;2022-07-23T12:31:35;29.90;64.70
36214;DHT22;37652;50.400;30.628;2022-07-23T12:33:42;29.70;65.10
36214;DHT22;37652;50.400;30.628;2022-07-23T12:35:46;29.40;65.40
36214;DHT22;37652;50.400;30.628;2022-07-23T12:37:50;29.40;65.70
36214;DHT22;37652;50.400;30.628;2022-07-23T12:39:52;30.30;65.70
36214;DHT22;37652;50.400;30.628;2022-07-23T12:48:23;30.30;65.10
36214;DHT22;37652;50.400;30.628;2022-07-23T12:52:48;30.30;65.50
36214;DHT22;37652;50.400;30.628;2022-07-23T12:54:54;31.30;65.20
36214;DHT22;37652;50.400;30.628;2022-07-23T12:59:13;33.10;63.10
36214;DHT22;37652;50.400;30.628;2022-07-23T13:01:27;33.60;62.00
36214;DHT22;37652;50.400;30.628;2022-07-23T13:03:32;34.30;62.00
36214;DHT22;37652;50.400;30.628;2022-07-23T13:05:33;34.90;61.50
36214;DHT22;37652;50.400;30.628;2022-07-23T13:07:34;34.90;61.10
36214;DHT22;37652;50.400;30.628;2022-07-23T13:09:34;34.90;60.30
36214;DHT22;37652;50.400;30.628;2022-07-23T13:11:35;34.70;60.90
36214;DHT22;37652;50.400;30.628;2022-07-23T13:13:36;33.50;61.60
36214;DHT22;37652;50.400;30.628;2022-07-23T13:17:37;32.80;62.70
36214;DHT22;37652;50.400;30.628;2022-07-23T13:19:41;32.60;62.50
36214;DHT22;37652;50.400;30.628;2022-07-23T13:23:43;33.20;61.90
36214;DHT22;37652;50.400;30.628;2022-07-23T13:25:45;34.20;61.60
36214;DHT22;37652;50.400;30.628;2022-07-23T13:27:45;34.50;60.80
36214;DHT22;37652;50.400;30.628;2022-07-23T13:29:46;34.50;60.70
36214;DHT22;37652;50.400;30.628;2022-07-23T13:31:47;34.30;61.50
36214;DHT22;37652;50.400;30.628;2022-07-23T13:33:50;33.40;61.60
36214;DHT22;37652;50.400;30.628;2022-07-23T13:35:52;33.10;62.30
36214;DHT22;37652;50.400;30.628;2022-07-23T13:39:54;33.20;62.00
36214;DHT22;37652;50.400;30.628;2022-07-23T13:41:56;33.40;61.60
36214;DHT22;37652;50.400;30.628;2022-07-23T13:43:57;33.60;61.40
36214;DHT22;37652;50.400;30.628;2022-07-23T13:45:58;33.80;61.30
36214;DHT22;37652;50.400;30.628;2022-07-23T13:48:02;34.00;61.50
36214;DHT22;37652;50.400;30.628;2022-07-23T13:50:04;33.70;61.10
36214;DHT22;37652;50.400;30.628;2022-07-23T13:52:05;33.80;61.00
36214;DHT22;37652;50.400;30.628;2022-07-23T13:54:06;33.80;61.00
36214;DHT22;37652;50.400;30.628;2022-07-23T13:56:07;33.70;60.80
36214;DHT22;37652;50.400;30.628;2022-07-23T13:58:08;33.80;61.00
36214;DHT22;37652;50.400;30.628;2022-07-23T14:00:10;34.60;60.50
36214;DHT22;37652;50.400;30.628;2022-07-23T14:02:15;34.60;60.10
36214;DHT22;37652;50.400;30.628;2022-07-23T14:04:17;34.40;60.10
36214;DHT22;37652;50.400;30.628;2022-07-23T14:08:19;34.30;60.20
36214;DHT22;37652;50.400;30.628;2022-07-23T14:10:21;34.20;60.40
36214;DHT22;37652;50.400;30.628;2022-07-23T14:16:24;33.90;60.60
36214;DHT22;37652;50.400;30.628;2022-07-23T14:18:25;33.20;61.10
36214;DHT22;37652;50.400;30.628;2022-07-23T14:20:28;32.70;61.80
36214;DHT22;37652;50.400;30.628;2022-07-23T14:22:29;33.20;62.00
36214;DHT22;37652;50.400;30.628;2022-07-23T14:24:30;32.90;61.50
36214;DHT22;37652;50.400;30.628;2022-07-23T14:26:30;33.00;61.80
36214;DHT22;37652;50.400;30.628;2022-07-23T14:28:33;33.30;61.90
36214;DHT22;37652;50.400;30.628;2022-07-23T14:32:36;33.00;61.60
36214;DHT22;37652;50.400;30.628;2022-07-23T14:40:40;32.90;61.80
36214;DHT22;37652;50.400;30.628;2022-07-23T14:42:41;32.70;61.90
36214;DHT22;37652;50.400;30.628;2022-07-23T14:46:43;33.10;62.40
36214;DHT22;37652;50.400;30.628;2022-07-23T14:52:46;32.30;62.50
36214;DHT22;37652;50.400;30.628;2022-07-23T14:54:46;32.60;63.10
36214;DHT22;37652;50.400;30.628;2022-07-23T14:58:49;32.50;63.10
36214;DHT22;37652;50.400;30.628;2022-07-23T15:00:50;32.40;62.80
36214;DHT22;37652;50.400;30.628;2022-07-23T15:02:52;32.10;62.80
36214;DHT22;37652;50.400;30.628;2022-07-23T15:04:53;32.10;63.20
36214;DHT22;37652;50.400;30.628;2022-07-23T15:06:54;32.00;63.10
36214;DHT22;37652;50.400;30.628;2022-07-23T15:12:57;32.00;63.70
36214;DHT22;37652;50.400;30.628;2022-07-23T15:16:58;32.00;64.10
36214;DHT22;37652;50.400;30.628;2022-07-23T15:19:00;31.50;63.80
36214;DHT22;37652;50.400;30.628;2022-07-23T15:21:02;33.30;65.10
36214;DHT22;37652;50.400;30.628;2022-07-23T15:25:05;31.20;63.90
36214;DHT22;37652;50.400;30.628;2022-07-23T15:27:07;31.00;63.60
36214;DHT22;37652;50.400;30.628;2022-07-23T15:35:10;30.60;63.80
36214;DHT22;37652;50.400;30.628;2022-07-23T15:37:11;31.00;64.30
36214;DHT22;37652;50.400;30.628;2022-07-23T15:39:12;31.30;64.40
36214;DHT22;37652;50.400;30.628;2022-07-23T15:41:13;31.30;64.50
36214;DHT22;37652;50.400;30.628;2022-07-23T15:43:14;31.00;64.30
36214;DHT22;37652;50.400;30.628;2022-07-23T15:47:17;31.00;64.30
36214;DHT22;37652;50.400;30.628;2022-07-23T15:49:19;30.30;64.70
36214;DHT22;37652;50.400;30.628;2022-07-23T15:55:21;30.00;66.20
36214;DHT22;37652;50.400;30.628;2022-07-23T15:57:22;29.70;66.00
36214;DHT22;37652;50.400;30.628;2022-07-23T15:59:23;29.60;66.80
36214;DHT22;37652;50.400;30.628;2022-07-23T16:01:26;29.30;66.40
36214;DHT22;37652;50.400;30.628;2022-07-23T16:03:30;29.20;66.80
36214;DHT22;37652;50.400;30.628;2022-07-23T16:05:31;29.20;67.90
36214;DHT22;37652;50.400;30.628;2022-07-23T16:15:41;28.50;68.30
36214;DHT22;37652;50.400;30.628;2022-07-23T16:17:42;28.90;68.80
36214;DHT22;37652;50.400;30.628;2022-07-23T16:21:46;28.60;68.50
36214;DHT22;37652;50.400;30.628;2022-07-23T16:25:48;28.50;68.90
36214;DHT22;37652;50.400;30.628;2022-07-23T16:27:49;28.30;69.40
36214;DHT22;37652;50.400;30.628;2022-07-23T16:29:49;28.30;69.30
36214;DHT22;37652;50.400;30.628;2022-07-23T16:31:51;28.30;68.80
36214;DHT22;37652;50.400;30.628;2022-07-23T16:33:52;28.40;68.40
36214;DHT22;37652;50.400;30.628;2022-07-23T16:39:54;28.10;69.10
36214;DHT22;37652;50.400;30.628;2022-07-23T16:41:55;28.50;69.40
36214;DHT22;37652;50.400;30.628;2022-07-23T16:43:56;28.30;68.70
36214;DHT22;37652;50.400;30.628;2022-07-23T16:56:03;28.10;70.90
36214;DHT22;37652;50.400;30.628;2022-07-23T16:58:05;28.50;72.50
36214;DHT22;37652;50.400;30.628;2022-07-23T17:00:07;27.80;70.70
36214;DHT22;37652;50.400;30.628;2022-07-23T17:08:14;27.50;73.60
36214;DHT22;37652;50.400;30.628;2022-07-23T17:10:14;27.40;74.60